Time;durP1;ratioP1;P1;durP2;ratioP2;P2;SDS_P1;SDS_P2;PMS_P1;PMS_P2;Temp;Humidity;BMP_temperature;BMP_pressure;BME280_temperature;BME280_humidity;BME280_pressure;Samples;Min_cycle;Max_cycle;Signal;HPM_P1;HPM_P2
2021/10/05 00:00:56;;;;;;;5.05;2.40;;;;;;;;;;5095302;28;20032;-76
2021/10/05 00:03:22;;;;;;;3.58;2.38;;;;;;;;;;5095087;28;20145;-76
2021/10/05 00:05:47;;;;;;;4.10;2.17;;;;;;;;;;5095083;28;20445;-76
2021/10/05 00:08:12;;;;;;;9.18;3.35;;;;;;;;;;5095156;28;20047;-76
2021/10/05 00:10:38;;;;;;;7.05;3.10;;;;;;;;;;5094832;28;20040;-76
2021/10/05 00:13:03;;;;;;;9.35;3.17;;;;;;;;;;5095212;28;20024;-76
2021/10/05 00:15:29;;;;;;;3.47;2.95;;;;;;;;;;5095081;28;20039;-76
2021/10/05 00:17:54;;;;;;;2.80;2.00;;;;;;;;;;5094540;28;20043;-76
2021/10/05 00:20:20;;;;;;;2.97;2.28;;;;;;;;;;5094959;28;20031;-76
2021/10/05 00:22:45;;;;;;;7.70;4.25;;;;;;;;;;5094621;28;20607;-76
2021/10/05 00:25:12;;;;;;;8.52;4.10;;;;;;;;;;5094783;28;20479;-76
2021/10/05 00:27:37;;;;;;;5.18;3.72;;;;;;;;;;5094658;28;20459;-76
2021/10/05 00:30:05;;;;;;;9.32;4.40;;;;;;;;;;5094605;28;20048;-76
2021/10/05 00:32:31;;;;;;;8.65;4.05;;;;;;;;;;5094503;28;20055;-76
2021/10/05 00:34:56;;;;;;;3.35;2.95;;;;;;;;;;5094559;28;20040;-76
2021/10/05 00:37:21;;;;;;;6.93;2.70;;;;;;;;;;5094499;28;20063;-76
2021/10/05 00:39:47;;;;;;;4.80;2.42;;;;;;;;;;5094346;28;20127;-76
2021/10/05 00:42:12;;;;;;;8.98;2.67;;;;;;;;;;5094266;28;20032;-76
2021/10/05 00:44:39;;;;;;;11.27;3.67;;;;;;;;;;5094268;28;20040;-76
2021/10/05 00:47:12;;;;;;;20.00;2.83;;;;;;;;;;5094497;28;20390;-76
2021/10/05 00:49:40;;;;;;;2.85;2.20;;;;;;;;;;5093860;28;20036;-76
2021/10/05 00:52:06;;;;;;;5.18;2.60;;;;;;;;;;5094373;28;20032;-76
2021/10/05 00:54:33;;;;;;;6.53;2.22;;;;;;;;;;5094202;28;20024;-76
2021/10/05 00:56:58;;;;;;;2.67;2.42;;;;;;;;;;5094143;28;20531;-76
2021/10/05 00:59:24;;;;;;;4.00;2.50;;;;;;;;;;5092812;28;20119;-76
2021/10/05 01:01:50;;;;;;;5.72;3.88;;;;;;;;;;5093383;28;20373;-76
2021/10/05 01:04:15;;;;;;;5.93;2.30;;;;;;;;;;5093817;28;20059;-76
2021/10/05 01:06:55;;;;;;;3.28;2.15;;;;;;;;;;5092858;28;20139;-76
2021/10/05 01:09:20;;;;;;;8.70;3.30;;;;;;;;;;5093976;28;20043;-76
2021/10/05 01:11:45;;;;;;;8.35;3.58;;;;;;;;;;5092816;28;20461;-76
2021/10/05 01:14:11;;;;;;;5.82;3.95;;;;;;;;;;5093897;28;20046;-76
2021/10/05 01:16:37;;;;;;;7.93;4.57;;;;;;;;;;5093812;28;20161;-76
2021/10/05 01:19:02;;;;;;;8.65;5.00;;;;;;;;;;5093535;28;20104;-76
2021/10/05 01:21:28;;;;;;;8.27;5.57;;;;;;;;;;5093975;28;20044;-76
2021/10/05 01:23:53;;;;;;;6.05;4.43;;;;;;;;;;5093699;28;20036;-76
2021/10/05 01:26:20;;;;;;;5.53;4.22;;;;;;;;;;5093390;28;20043;-76
2021/10/05 01:28:46;;;;;;;7.30;4.55;;;;;;;;;;5093323;28;20177;-76
2021/10/05 01:31:11;;;;;;;7.75;4.32;;;;;;;;;;5093762;28;20444;-76
2021/10/05 01:33:37;;;;;;;7.72;3.88;;;;;;;;;;5092046;28;20032;-76
2021/10/05 01:36:02;;;;;;;3.40;2.95;;;;;;;;;;5092496;28;20514;-76
2021/10/05 01:38:28;;;;;;;4.35;2.90;;;;;;;;;;5093038;28;20048;-76
2021/10/05 01:40:53;;;;;;;5.45;2.97;;;;;;;;;;5093422;28;20381;-76
2021/10/05 01:43:19;;;;;;;7.10;2.70;;;;;;;;;;5093601;28;20084;-76
2021/10/05 01:45:44;;;;;;;3.10;2.80;;;;;;;;;;5093604;28;20389;-76
2021/10/05 01:48:10;;;;;;;7.82;3.40;;;;;;;;;;5093179;28;20044;-76
2021/10/05 01:50:36;;;;;;;10.30;3.22;;;;;;;;;;5093122;28;20035;-76
2021/10/05 01:53:02;;;;;;;6.38;3.53;;;;;;;;;;5093384;28;20044;-77
2021/10/05 01:55:27;;;;;;;4.38;3.72;;;;;;;;;;5093306;28;20036;-76
2021/10/05 01:57:53;;;;;;;5.38;4.32;;;;;;;;;;5092995;28;20070;-76
2021/10/05 02:00:19;;;;;;;7.32;4.75;;;;;;;;;;5093434;28;20484;-76
2021/10/05 02:02:44;;;;;;;6.85;4.25;;;;;;;;;;5092932;28;20087;-77
2021/10/05 02:05:10;;;;;;;5.47;4.22;;;;;;;;;;5092719;28;20040;-76
2021/10/05 02:07:36;;;;;;;6.15;4.30;;;;;;;;;;5093539;28;20040;-76
2021/10/05 02:10:03;;;;;;;6.10;4.28;;;;;;;;;;5092869;28;20043;-76
2021/10/05 02:12:29;;;;;;;8.52;4.47;;;;;;;;;;5094655;28;20068;-77
2021/10/05 02:14:55;;;;;;;6.10;4.15;;;;;;;;;;5097861;28;20031;-76
2021/10/05 02:17:20;;;;;;;5.93;3.70;;;;;;;;;;5097151;28;20123;-76
2021/10/05 02:19:46;;;;;;;4.85;3.17;;;;;;;;;;5096953;28;20055;-76
2021/10/05 02:22:11;;;;;;;11.15;3.00;;;;;;;;;;5097086;28;20044;-76
2021/10/05 02:24:41;;;;;;;4.03;3.30;;;;;;;;;;5097541;28;20085;-78
2021/10/05 02:27:07;;;;;;;4.07;3.22;;;;;;;;;;5097257;28;20430;-76
2021/10/05 02:29:36;;;;;;;4.10;3.30;;;;;;;;;;5096788;28;20033;-76
2021/10/05 02:32:03;;;;;;;4.25;3.67;;;;;;;;;;5096557;28;20035;-77
2021/10/05 02:34:29;;;;;;;7.93;3.25;;;;;;;;;;5096955;28;20457;-76
2021/10/05 02:36:54;;;;;;;5.38;3.53;;;;;;;;;;5096617;28;20124;-76
2021/10/05 02:39:19;;;;;;;5.55;3.47;;;;;;;;;;5095999;28;20079;-77
2021/10/05 02:41:45;;;;;;;5.60;3.20;;;;;;;;;;5096630;28;20101;-76
2021/10/05 02:44:10;;;;;;;5.70;3.25;;;;;;;;;;5096598;28;20028;-76
2021/10/05 02:46:35;;;;;;;4.40;3.65;;;;;;;;;;5096488;28;20036;-76
2021/10/05 02:49:01;;;;;;;5.68;3.67;;;;;;;;;;5096054;28;20039;-76
2021/10/05 02:51:26;;;;;;;6.55;4.45;;;;;;;;;;5097091;28;20047;-77
2021/10/05 02:53:52;;;;;;;5.13;3.97;;;;;;;;;;5102679;28;20036;-78
2021/10/05 02:56:17;;;;;;;4.30;3.65;;;;;;;;;;5100585;28;20032;-78
2021/10/05 02:58:43;;;;;;;5.20;3.55;;;;;;;;;;5099449;28;20036;-76
2021/10/05 03:01:08;;;;;;;5.18;3.40;;;;;;;;;;5096649;28;20131;-75
2021/10/05 03:03:34;;;;;;;12.00;6.28;;;;;;;;;;5096216;28;20036;-76
2021/10/05 03:05:59;;;;;;;6.65;5.07;;;;;;;;;;5096359;28;20039;-76
2021/10/05 03:08:29;;;;;;;13.73;4.28;;;;;;;;;;5096270;28;20042;-75
2021/10/05 03:10:54;;;;;;;7.70;4.32;;;;;;;;;;5095860;28;20055;-75
2021/10/05 03:13:19;;;;;;;5.28;3.72;;;;;;;;;;5096222;28;20036;-75
2021/10/05 03:15:45;;;;;;;5.05;4.00;;;;;;;;;;5096290;28;20040;-75
2021/10/05 03:18:10;;;;;;;5.05;3.67;;;;;;;;;;5094784;28;20028;-75
2021/10/05 03:20:35;;;;;;;4.50;3.65;;;;;;;;;;5096254;28;20480;-76
2021/10/05 03:23:01;;;;;;;7.65;4.35;;;;;;;;;;5096064;28;20542;-76
2021/10/05 03:25:26;;;;;;;7.43;4.05;;;;;;;;;;5095042;28;20430;-75
2021/10/05 03:27:51;;;;;;;4.65;4.15;;;;;;;;;;5096093;28;20062;-75
2021/10/05 03:30:17;;;;;;;4.45;3.92;;;;;;;;;;5095936;28;20055;-76
2021/10/05 03:32:42;;;;;;;4.40;3.53;;;;;;;;;;5095474;28;20454;-75
2021/10/05 03:35:08;;;;;;;6.40;3.50;;;;;;;;;;5095619;28;20071;-75
2021/10/05 03:37:33;;;;;;;5.18;3.83;;;;;;;;;;5095738;28;20067;-75
2021/10/05 03:39:59;;;;;;;5.72;3.83;;;;;;;;;;5095352;28;20055;-76
2021/10/05 03:42:24;;;;;;;6.07;4.20;;;;;;;;;;5095936;28;20036;-76
2021/10/05 03:44:49;;;;;;;6.20;3.55;;;;;;;;;;5095543;28;20040;-76
2021/10/05 03:47:15;;;;;;;5.07;3.90;;;;;;;;;;5095691;28;20043;-76
2021/10/05 03:49:40;;;;;;;4.93;3.55;;;;;;;;;;5095246;28;20032;-76
2021/10/05 03:52:06;;;;;;;9.13;4.25;;;;;;;;;;5095272;28;20036;-76
2021/10/05 03:54:31;;;;;;;9.52;4.10;;;;;;;;;;5095236;28;20067;-76
2021/10/05 03:56:57;;;;;;;8.57;4.32;;;;;;;;;;5095526;28;20027;-76
2021/10/05 03:59:22;;;;;;;6.13;3.67;;;;;;;;;;5095165;28;20044;-76
2021/10/05 04:01:48;;;;;;;5.20;4.13;;;;;;;;;;5095520;28;20130;-76
2021/10/05 04:04:13;;;;;;;6.18;4.13;;;;;;;;;;5095032;28;20058;-76
2021/10/05 04:06:40;;;;;;;7.07;3.97;;;;;;;;;;5095418;28;20032;-75
2021/10/05 04:09:06;;;;;;;6.18;3.97;;;;;;;;;;5094979;28;20112;-76
2021/10/05 04:11:32;;;;;;;6.40;3.88;;;;;;;;;;5094751;28;20393;-76
2021/10/05 04:13:58;;;;;;;4.88;3.92;;;;;;;;;;5094793;28;20481;-75
2021/10/05 04:16:23;;;;;;;5.32;3.75;;;;;;;;;;5094983;28;20089;-76
2021/10/05 04:18:48;;;;;;;6.97;3.63;;;;;;;;;;5094785;28;20092;-75
2021/10/05 04:21:14;;;;;;;6.03;3.92;;;;;;;;;;5094663;28;20405;-75
2021/10/05 04:23:39;;;;;;;7.03;3.72;;;;;;;;;;5094909;28;20369;-76
2021/10/05 04:26:05;;;;;;;6.15;3.50;;;;;;;;;;5095002;28;20106;-76
2021/10/05 04:28:30;;;;;;;4.97;3.72;;;;;;;;;;5094714;28;20596;-76
2021/10/05 04:30:55;;;;;;;9.30;4.50;;;;;;;;;;5094745;28;20036;-76
2021/10/05 04:33:21;;;;;;;4.97;4.10;;;;;;;;;;5094111;28;20039;-76
2021/10/05 04:35:46;;;;;;;5.22;3.72;;;;;;;;;;5094612;28;20036;-75
2021/10/05 04:38:11;;;;;;;6.50;4.40;;;;;;;;;;5094076;28;20086;-75
2021/10/05 04:40:37;;;;;;;6.78;4.40;;;;;;;;;;5094656;28;20077;-75
2021/10/05 04:43:02;;;;;;;9.77;5.03;;;;;;;;;;5094707;28;20097;-75
2021/10/05 04:45:28;;;;;;;7.00;5.15;;;;;;;;;;5094747;28;20028;-76
2021/10/05 04:47:53;;;;;;;9.40;4.70;;;;;;;;;;5093375;28;20772;-76
2021/10/05 04:50:18;;;;;;;8.57;4.80;;;;;;;;;;5094144;28;20039;-76
2021/10/05 04:52:44;;;;;;;4.93;4.43;;;;;;;;;;5094505;28;20043;-76
2021/10/05 04:55:09;;;;;;;8.48;5.35;;;;;;;;;;5094508;28;20454;-76
2021/10/05 04:57:35;;;;;;;6.10;4.55;;;;;;;;;;5093111;28;20035;-76
2021/10/05 05:00:00;;;;;;;5.88;4.80;;;;;;;;;;5094172;28;20028;-76
2021/10/05 05:02:26;;;;;;;6.55;5.18;;;;;;;;;;5094231;28;20152;-76
2021/10/05 05:04:52;;;;;;;5.40;4.40;;;;;;;;;;5093991;28;20119;-76
2021/10/05 05:07:17;;;;;;;4.57;4.15;;;;;;;;;;5094000;28;20040;-76
2021/10/05 05:09:42;;;;;;;6.32;5.18;;;;;;;;;;5092511;28;20089;-76
2021/10/05 05:12:08;;;;;;;7.53;5.40;;;;;;;;;;5092801;28;20054;-76
2021/10/05 05:14:34;;;;;;;7.10;4.57;;;;;;;;;;5093713;28;20032;-76
2021/10/05 05:16:59;;;;;;;7.68;5.18;;;;;;;;;;5093943;28;20078;-76
2021/10/05 05:19:24;;;;;;;6.18;4.43;;;;;;;;;;5093575;28;20032;-76
2021/10/05 05:21:50;;;;;;;8.32;4.55;;;;;;;;;;5092541;28;20089;-76
2021/10/05 05:24:15;;;;;;;12.05;4.50;;;;;;;;;;5092397;28;20036;-76
2021/10/05 05:26:41;;;;;;;7.85;4.43;;;;;;;;;;5093844;28;20047;-76
2021/10/05 05:29:06;;;;;;;5.45;4.80;;;;;;;;;;5093540;28;20040;-76
2021/10/05 05:31:33;;;;;;;5.60;4.95;;;;;;;;;;5093613;28;20047;-76
2021/10/05 05:33:58;;;;;;;5.13;4.18;;;;;;;;;;5093562;28;20040;-76
2021/10/05 05:36:24;;;;;;;5.43;4.53;;;;;;;;;;5093841;28;20039;-76
2021/10/05 05:38:50;;;;;;;10.55;4.93;;;;;;;;;;5093075;28;20131;-76
2021/10/05 05:41:15;;;;;;;12.82;6.65;;;;;;;;;;5093739;28;20077;-76
2021/10/05 05:43:41;;;;;;;10.75;5.85;;;;;;;;;;5093282;28;20028;-76
2021/10/05 05:46:06;;;;;;;7.47;5.30;;;;;;;;;;5093420;28;20046;-76
2021/10/05 05:48:31;;;;;;;9.40;4.80;;;;;;;;;;5092718;28;20027;-76
2021/10/05 05:50:57;;;;;;;5.88;4.78;;;;;;;;;;5091298;28;20032;-76
2021/10/05 05:53:22;;;;;;;7.13;5.28;;;;;;;;;;5091236;28;20042;-76
2021/10/05 05:55:47;;;;;;;8.35;6.65;;;;;;;;;;5093502;28;20416;-77
2021/10/05 05:58:15;;;;;;;7.80;5.50;;;;;;;;;;5093348;28;20048;-76
2021/10/05 06:00:42;;;;;;;9.07;4.70;;;;;;;;;;5092428;28;20047;-78
2021/10/05 06:03:08;;;;;;;8.93;5.20;;;;;;;;;;5093962;28;20051;-76
2021/10/05 06:05:34;;;;;;;5.68;4.50;;;;;;;;;;5093043;28;20036;-76
2021/10/05 06:08:00;;;;;;;5.70;4.57;;;;;;;;;;5092608;28;20074;-76
2021/10/05 06:10:26;;;;;;;5.50;4.70;;;;;;;;;;5093233;28;20068;-77
2021/10/05 06:12:53;;;;;;;6.82;5.30;;;;;;;;;;5093052;28;20119;-78
2021/10/05 06:15:19;;;;;;;6.55;4.70;;;;;;;;;;5093287;28;20028;-77
2021/10/05 06:17:45;;;;;;;6.68;4.88;;;;;;;;;;5093109;28;20074;-77
2021/10/05 06:20:12;;;;;;;5.63;4.57;;;;;;;;;;5092983;28;20055;-77
2021/10/05 06:22:38;;;;;;;8.70;4.88;;;;;;;;;;5093329;28;20040;-77
2021/10/05 06:25:12;;;;;;;7.05;4.90;;;;;;;;;;5092849;28;20075;-77
2021/10/05 06:27:38;;;;;;;6.75;4.90;;;;;;;;;;5092892;28;20465;-76
2021/10/05 06:30:06;;;;;;;5.72;4.82;;;;;;;;;;5092898;28;20036;-76
2021/10/05 06:32:31;;;;;;;5.90;4.70;;;;;;;;;;5091548;28;20046;-76
2021/10/05 06:34:57;;;;;;;5.07;4.10;;;;;;;;;;5092439;28;20663;-76
2021/10/05 06:37:22;;;;;;;6.85;4.80;;;;;;;;;;5092199;28;20493;-76
2021/10/05 06:39:47;;;;;;;7.95;5.60;;;;;;;;;;5092911;28;20397;-76
2021/10/05 06:42:13;;;;;;;6.70;5.20;;;;;;;;;;5092835;28;20036;-76
2021/10/05 06:44:38;;;;;;;5.47;4.30;;;;;;;;;;5074258;28;20044;-76
2021/10/05 06:47:04;;;;;;;5.53;4.68;;;;;;;;;;5082357;28;20056;-76
2021/10/05 06:49:30;;;;;;;7.93;4.82;;;;;;;;;;5080790;28;20040;-76
2021/10/05 06:51:55;;;;;;;7.95;7.10;;;;;;;;;;5075403;28;20428;-76
2021/10/05 06:54:21;;;;;;;8.00;7.20;;;;;;;;;;5073358;28;20032;-75
2021/10/05 06:56:46;;;;;;;8.25;7.05;;;;;;;;;;5072736;28;20478;-76
2021/10/05 06:59:11;;;;;;;6.35;5.75;;;;;;;;;;5072516;28;20144;-77
2021/10/05 07:01:37;;;;;;;11.82;8.27;;;;;;;;;;5076767;28;20050;-75
2021/10/05 07:04:02;;;;;;;7.07;5.90;;;;;;;;;;5074819;28;20094;-77
2021/10/05 07:06:28;;;;;;;6.28;5.55;;;;;;;;;;5081722;28;20081;-75
2021/10/05 07:08:54;;;;;;;9.75;6.15;;;;;;;;;;5095037;28;20039;-76
2021/10/05 07:11:20;;;;;;;6.30;5.70;;;;;;;;;;5095625;28;20111;-76
2021/10/05 07:13:45;;;;;;;5.75;5.18;;;;;;;;;;5096128;28;20086;-76
2021/10/05 07:16:11;;;;;;;5.78;5.00;;;;;;;;;;5094692;28;20032;-77
2021/10/05 07:18:37;;;;;;;7.72;5.28;;;;;;;;;;5094637;28;20509;-78
2021/10/05 07:21:02;;;;;;;6.82;5.32;;;;;;;;;;5095979;28;20479;-76
2021/10/05 07:23:28;;;;;;;5.93;4.90;;;;;;;;;;5095493;28;20473;-77
2021/10/05 07:25:53;;;;;;;6.13;4.85;;;;;;;;;;5096070;28;20036;-78
2021/10/05 07:28:19;;;;;;;6.10;4.80;;;;;;;;;;5095989;28;20046;-78
2021/10/05 07:30:46;;;;;;;8.27;5.32;;;;;;;;;;5094497;28;20383;-77
2021/10/05 07:33:11;;;;;;;6.95;5.57;;;;;;;;;;5095750;28;20039;-76
2021/10/05 07:35:37;;;;;;;7.22;5.85;;;;;;;;;;5096005;28;20040;-76
2021/10/05 07:38:03;;;;;;;7.82;5.65;;;;;;;;;;5095693;28;20060;-75
2021/10/05 07:40:29;;;;;;;10.52;7.07;;;;;;;;;;5094682;28;20127;-76
2021/10/05 07:42:57;;;;;;;9.48;7.65;;;;;;;;;;5095026;28;20032;-76
2021/10/05 07:45:25;;;;;;;10.07;6.65;;;;;;;;;;5095623;28;20047;-76
2021/10/05 07:47:51;;;;;;;9.35;6.03;;;;;;;;;;5095256;28;20123;-76
2021/10/05 07:50:18;;;;;;;10.60;5.95;;;;;;;;;;5095489;28;20110;-76
2021/10/05 07:52:44;;;;;;;7.13;5.28;;;;;;;;;;5094207;28;20031;-76
2021/10/05 07:55:09;;;;;;;10.25;6.72;;;;;;;;;;5095364;28;20350;-76
2021/10/05 07:57:35;;;;;;;7.47;6.28;;;;;;;;;;5094237;28;20032;-76
2021/10/05 08:00:03;;;;;;;10.20;6.50;;;;;;;;;;5095322;28;20028;-77
2021/10/05 08:02:36;;;;;;;6.53;5.22;;;;;;;;;;5095305;28;20401;-75
2021/10/05 08:05:02;;;;;;;7.68;6.05;;;;;;;;;;5095211;28;20043;-76
2021/10/05 08:07:27;;;;;;;7.35;5.55;;;;;;;;;;5077082;28;20408;-76
2021/10/05 08:09:54;;;;;;;8.07;5.18;;;;;;;;;;5094462;28;20032;-76
2021/10/05 08:12:20;;;;;;;8.35;5.32;;;;;;;;;;5094600;28;20538;-77
2021/10/05 08:14:45;;;;;;;5.22;4.63;;;;;;;;;;5088880;28;20474;-76
2021/10/05 08:17:11;;;;;;;6.38;4.78;;;;;;;;;;5083341;28;20028;-76
2021/10/05 08:19:37;;;;;;;5.93;5.00;;;;;;;;;;5083612;28;20045;-76
2021/10/05 08:22:03;;;;;;;6.43;4.50;;;;;;;;;;5083936;28;20473;-77
2021/10/05 08:24:28;;;;;;;5.05;4.55;;;;;;;;;;5085147;28;20051;-77
2021/10/05 08:26:54;;;;;;;5.75;4.75;;;;;;;;;;5083008;28;20041;-76
2021/10/05 08:29:19;;;;;;;8.38;4.85;;;;;;;;;;5087718;28;20032;-77
2021/10/05 08:31:50;;;;;;;5.07;4.25;;;;;;;;;;5071069;28;20035;-76
2021/10/05 08:34:17;;;;;;;5.20;4.68;;;;;;;;;;5084092;28;20413;-77
2021/10/05 08:36:42;;;;;;;4.75;4.07;;;;;;;;;;5082418;28;20031;-77
2021/10/05 08:39:10;;;;;;;4.25;3.85;;;;;;;;;;5084792;28;20048;-76
2021/10/05 08:41:37;;;;;;;4.78;3.90;;;;;;;;;;5083585;28;20025;-76
2021/10/05 08:44:03;;;;;;;4.53;4.07;;;;;;;;;;5083040;28;20035;-76
2021/10/05 08:46:29;;;;;;;4.80;4.05;;;;;;;;;;5083888;28;20419;-76
2021/10/05 08:48:56;;;;;;;7.55;5.45;;;;;;;;;;5085110;28;20427;-78
2021/10/05 08:51:21;;;;;;;9.50;7.13;;;;;;;;;;5084658;28;20474;-78
2021/10/05 08:53:47;;;;;;;9.70;6.82;;;;;;;;;;5085884;28;20040;-78
2021/10/05 08:56:14;;;;;;;6.75;5.25;;;;;;;;;;5085436;28;20111;-77
2021/10/05 08:58:40;;;;;;;5.75;4.38;;;;;;;;;;5082620;28;20121;-77
2021/10/05 09:01:14;;;;;;;5.30;4.07;;;;;;;;;;5085012;28;20036;-77
2021/10/05 09:03:50;;;;;;;3.03;2.72;;;;;;;;;;5083977;28;20066;-77
2021/10/05 09:06:16;;;;;;;3.25;2.45;;;;;;;;;;5083062;28;20036;-77
2021/10/05 09:08:43;;;;;;;4.00;2.63;;;;;;;;;;5083118;28;20032;-78
2021/10/05 09:11:10;;;;;;;2.28;1.75;;;;;;;;;;5084405;28;20028;-77
2021/10/05 09:13:39;;;;;;;7.70;1.92;;;;;;;;;;5082835;28;20037;-77
2021/10/05 09:16:19;;;;;;;4.90;2.20;;;;;;;;;;5082625;28;20036;-77
2021/10/05 09:19:15;;;;;;;7.82;2.83;;;;;;;;;;5084096;28;20040;-77
2021/10/05 09:21:55;;;;;;;3.35;2.40;;;;;;;;;;5076423;28;20113;-77
2021/10/05 09:24:27;;;;;;;4.05;2.17;;;;;;;;;;5083317;28;20028;-77
2021/10/05 09:26:59;;;;;;;3.28;2.28;;;;;;;;;;5074310;28;20120;-77
2021/10/05 09:29:27;;;;;;;3.53;2.60;;;;;;;;;;5080690;28;20040;-77
2021/10/05 09:32:04;;;;;;;4.10;2.45;;;;;;;;;;5093445;28;20036;-77
2021/10/05 09:34:55;;;;;;;2.58;2.38;;;;;;;;;;5093871;28;20458;-77
2021/10/05 09:37:34;;;;;;;4.22;2.00;;;;;;;;;;5093659;28;20047;-77
2021/10/05 09:40:13;;;;;;;4.95;1.70;;;;;;;;;;5093076;28;20052;-76
2021/10/05 09:42:45;;;;;;;2.40;1.77;;;;;;;;;;5092017;28;20060;-76
2021/10/05 09:45:14;;;;;;;5.82;1.50;;;;;;;;;;5093701;28;20040;-76
2021/10/05 09:47:41;;;;;;;1.50;1.40;;;;;;;;;;5093470;28;20101;-76
2021/10/05 09:50:14;;;;;;;1.50;1.40;;;;;;;;;;5093360;28;20132;-76
2021/10/05 09:52:44;;;;;;;4.07;1.33;;;;;;;;;;5093329;28;20040;-75
2021/10/05 09:55:10;;;;;;;2.33;1.35;;;;;;;;;;5093831;28;20040;-80
2021/10/05 09:57:35;;;;;;;3.15;1.33;;;;;;;;;;5093507;28;20508;-77
2021/10/05 10:00:03;;;;;;;1.45;1.23;;;;;;;;;;5093757;28;20031;-76
2021/10/05 10:02:41;;;;;;;1.75;1.40;;;;;;;;;;5094773;28;20562;-75
2021/10/05 10:05:10;;;;;;;3.17;1.40;;;;;;;;;;5094779;28;20032;-76
2021/10/05 10:07:37;;;;;;;8.50;6.00;;;;;;;;;;5094569;28;20039;-76
2021/10/05 10:10:05;;;;;;;3.35;2.30;;;;;;;;;;5094597;28;20040;-76
2021/10/05 10:12:32;;;;;;;5.45;1.75;;;;;;;;;;5093305;28;20032;-80
2021/10/05 10:14:57;;;;;;;3.63;1.92;;;;;;;;;;5093677;28;20036;-76
2021/10/05 10:17:26;;;;;;;1.70;1.48;;;;;;;;;;5097094;28;20047;-76
2021/10/05 10:19:52;;;;;;;1.48;1.38;;;;;;;;;;5095044;28;20103;-77
2021/10/05 10:22:18;;;;;;;3.15;1.35;;;;;;;;;;5095126;28;20181;-76
2021/10/05 10:24:45;;;;;;;3.95;1.48;;;;;;;;;;5095448;28;20043;-76
2021/10/05 10:27:11;;;;;;;1.13;1.13;;;;;;;;;;5094187;28;20036;-77
2021/10/05 10:29:37;;;;;;;3.28;1.38;;;;;;;;;;5092814;28;20020;-76
2021/10/05 10:32:14;;;;;;;2.72;1.52;;;;;;;;;;5092309;28;20035;-76
2021/10/05 10:34:43;;;;;;;3.75;1.67;;;;;;;;;;5096469;28;20039;-75
2021/10/05 10:37:10;;;;;;;3.05;1.90;;;;;;;;;;5096797;28;20040;-75
2021/10/05 10:39:38;;;;;;;2.13;1.63;;;;;;;;;;5096839;28;20044;-75
2021/10/05 10:42:06;;;;;;;3.70;1.75;;;;;;;;;;5096963;28;20039;-75
2021/10/05 10:44:37;;;;;;;6.47;3.60;;;;;;;;;;5096699;28;20035;-75
2021/10/05 10:47:15;;;;;;;1.77;1.67;;;;;;;;;;5096876;28;20028;-76
2021/10/05 10:49:52;;;;;;;2.22;1.92;;;;;;;;;;5096791;28;20119;-75
2021/10/05 10:52:26;;;;;;;3.53;2.95;;;;;;;;;;5095527;28;20044;-76
2021/10/05 10:54:55;;;;;;;1.60;1.35;;;;;;;;;;5096845;28;20067;-75
2021/10/05 10:57:41;;;;;;;1.50;1.40;;;;;;;;;;5096677;28;20108;-75
2021/10/05 11:00:28;;;;;;;1.92;1.60;;;;;;;;;;5096346;28;20032;-75
2021/10/05 11:02:55;;;;;;;1.50;1.40;;;;;;;;;;5096775;28;20036;-76
2021/10/05 11:05:22;;;;;;;1.67;1.58;;;;;;;;;;5096560;28;20481;-75
2021/10/05 11:07:53;;;;;;;2.25;1.85;;;;;;;;;;5095563;28;20032;-76
2021/10/05 11:10:32;;;;;;;1.35;1.23;;;;;;;;;;5096722;28;20478;-76
2021/10/05 11:13:00;;;;;;;3.35;1.70;;;;;;;;;;5094925;28;20032;-77
2021/10/05 11:15:37;;;;;;;2.13;1.50;;;;;;;;;;5097735;28;20032;-77
2021/10/05 11:18:08;;;;;;;2.17;1.70;;;;;;;;;;5096456;28;20126;-77
2021/10/05 11:20:37;;;;;;;2.25;1.40;;;;;;;;;;5096486;28;20035;-77
2021/10/05 11:23:03;;;;;;;1.98;1.40;;;;;;;;;;5095437;28;20043;-79
2021/10/05 11:25:29;;;;;;;2.40;1.85;;;;;;;;;;5096821;28;20095;-76
2021/10/05 11:27:55;;;;;;;2.53;1.65;;;;;;;;;;5097017;28;20039;-78
2021/10/05 11:30:20;;;;;;;1.98;1.38;;;;;;;;;;5096137;28;20369;-78
2021/10/05 11:32:50;;;;;;;1.83;1.30;;;;;;;;;;5095221;28;20036;-77
2021/10/05 11:35:16;;;;;;;1.63;1.40;;;;;;;;;;5095170;28;20032;-77
2021/10/05 11:37:41;;;;;;;4.53;1.70;;;;;;;;;;5096319;28;20043;-77
2021/10/05 11:40:07;;;;;;;1.77;1.30;;;;;;;;;;5096053;28;20055;-78
2021/10/05 11:42:33;;;;;;;1.48;1.27;;;;;;;;;;5095217;28;20043;-78
2021/10/05 11:45:02;;;;;;;1.33;1.17;;;;;;;;;;5095218;28;20032;-77
2021/10/05 11:47:29;;;;;;;1.73;1.15;;;;;;;;;;5096035;28;20389;-77
2021/10/05 11:49:58;;;;;;;1.25;1.15;;;;;;;;;;5095945;28;20028;-77
2021/10/05 11:52:29;;;;;;;1.33;1.23;;;;;;;;;;5096014;28;20054;-77
2021/10/05 11:54:54;;;;;;;2.30;1.17;;;;;;;;;;5095912;28;20051;-77
2021/10/05 11:57:25;;;;;;;4.35;1.20;;;;;;;;;;5095947;28;20420;-77
2021/10/05 11:59:51;;;;;;;1.17;1.08;;;;;;;;;;5096153;28;20049;-78
2021/10/05 12:02:22;;;;;;;2.20;1.10;;;;;;;;;;5097185;28;20043;-78
2021/10/05 12:04:51;;;;;;;9.20;1.65;;;;;;;;;;5116093;28;20043;-77
2021/10/05 12:07:19;;;;;;;1.63;1.20;;;;;;;;;;5115845;28;20449;-78
2021/10/05 12:09:56;;;;;;;1.42;1.10;;;;;;;;;;5115518;28;20112;-78
2021/10/05 12:12:22;;;;;;;1.40;1.17;;;;;;;;;;5114564;28;20071;-77
2021/10/05 12:14:55;;;;;;;1.00;0.90;;;;;;;;;;5114285;28;20066;-77
2021/10/05 12:17:21;;;;;;;1.02;1.00;;;;;;;;;;5115612;28;20381;-77
2021/10/05 12:19:50;;;;;;;1.63;0.80;;;;;;;;;;5115411;28;20036;-77
2021/10/05 12:22:24;;;;;;;3.45;1.27;;;;;;;;;;5115618;28;20085;-77
2021/10/05 12:24:49;;;;;;;1.30;1.20;;;;;;;;;;5097627;28;20566;-77
2021/10/05 12:27:36;;;;;;;1.75;1.15;;;;;;;;;;5093708;28;20126;-77
2021/10/05 12:30:08;;;;;;;3.15;0.98;;;;;;;;;;5094577;28;20044;-77
2021/10/05 12:32:43;;;;;;;1.52;1.05;;;;;;;;;;5094938;28;20044;-77
2021/10/05 12:35:24;;;;;;;2.45;1.05;;;;;;;;;;5094762;28;20036;-77
2021/10/05 12:38:00;;;;;;;1.85;1.00;;;;;;;;;;5094409;28;20182;-77
2021/10/05 12:40:27;;;;;;;4.00;1.35;;;;;;;;;;5094479;28;20393;-77
2021/10/05 12:42:52;;;;;;;1.23;1.05;;;;;;;;;;5094521;28;20178;-77
2021/10/05 12:45:21;;;;;;;4.45;1.25;;;;;;;;;;5094651;28;20103;-78
2021/10/05 12:47:54;;;;;;;2.13;1.73;;;;;;;;;;5094273;28;20044;-77
2021/10/05 12:50:22;;;;;;;1.10;1.00;;;;;;;;;;5093128;28;20107;-77
2021/10/05 12:52:53;;;;;;;1.30;1.20;;;;;;;;;;5094596;28;20042;-77
2021/10/05 12:55:19;;;;;;;1.98;0.90;;;;;;;;;;5094351;28;20133;-77
2021/10/05 12:57:44;;;;;;;1.60;1.20;;;;;;;;;;5092067;28;20064;-77
2021/10/05 13:00:14;;;;;;;3.03;1.27;;;;;;;;;;5093803;28;20089;-77
2021/10/05 13:02:39;;;;;;;2.03;1.35;;;;;;;;;;5094245;28;20077;-78
2021/10/05 13:05:05;;;;;;;2.45;1.50;;;;;;;;;;5094884;28;20071;-78
2021/10/05 13:07:31;;;;;;;1.70;1.50;;;;;;;;;;5093818;28;20040;-78
2021/10/05 13:09:56;;;;;;;2.22;1.70;;;;;;;;;;5094394;28;20044;-77
2021/10/05 13:12:21;;;;;;;1.40;1.30;;;;;;;;;;5095248;28;20043;-77
2021/10/05 13:14:47;;;;;;;2.15;1.52;;;;;;;;;;5093266;28;20031;-78
2021/10/05 13:17:13;;;;;;;1.27;1.17;;;;;;;;;;5094603;28;20036;-77
2021/10/05 13:19:38;;;;;;;2.15;1.20;;;;;;;;;;5093189;28;20032;-77
2021/10/05 13:22:04;;;;;;;1.80;1.50;;;;;;;;;;5094279;28;20032;-77
2021/10/05 13:24:29;;;;;;;2.88;1.67;;;;;;;;;;5106627;28;20031;-78
2021/10/05 13:26:54;;;;;;;1.40;1.30;;;;;;;;;;5106123;28;20374;-78
2021/10/05 13:29:20;;;;;;;2.30;1.73;;;;;;;;;;5072370;28;20032;-78
2021/10/05 13:31:45;;;;;;;1.98;1.55;;;;;;;;;;5073598;28;20040;-78
2021/10/05 13:34:10;;;;;;;1.73;1.40;;;;;;;;;;5073719;28;20093;-78
2021/10/05 13:36:36;;;;;;;2.95;1.52;;;;;;;;;;5073859;28;20016;-77
2021/10/05 13:39:03;;;;;;;2.63;1.52;;;;;;;;;;5073091;28;20547;-79
2021/10/05 13:41:28;;;;;;;2.25;1.42;;;;;;;;;;5073620;28;20032;-77
2021/10/05 13:43:54;;;;;;;3.10;1.80;;;;;;;;;;5074836;28;20062;-77
2021/10/05 13:46:19;;;;;;;2.45;1.80;;;;;;;;;;5073636;28;20044;-78
2021/10/05 13:48:45;;;;;;;1.95;1.65;;;;;;;;;;5073587;28;20066;-77
2021/10/05 13:51:10;;;;;;;2.90;1.40;;;;;;;;;;5074978;28;20569;-78
2021/10/05 13:53:35;;;;;;;2.25;1.63;;;;;;;;;;5080993;28;20044;-77
2021/10/05 13:56:01;;;;;;;2.20;1.70;;;;;;;;;;5094895;28;20040;-77
2021/10/05 13:58:26;;;;;;;1.50;1.40;;;;;;;;;;5094530;28;20047;-77
2021/10/05 14:00:52;;;;;;;2.15;1.52;;;;;;;;;;5092006;28;20032;-76
2021/10/05 14:03:17;;;;;;;1.58;1.48;;;;;;;;;;5078062;28;20036;-77
2021/10/05 14:05:42;;;;;;;2.25;1.70;;;;;;;;;;5082206;28;20039;-77
2021/10/05 14:08:08;;;;;;;3.40;1.60;;;;;;;;;;5083618;28;20157;-77
2021/10/05 14:10:34;;;;;;;4.78;1.60;;;;;;;;;;5084538;28;20085;-77
2021/10/05 14:13:00;;;;;;;2.75;1.58;;;;;;;;;;5093013;28;20552;-77
2021/10/05 14:15:25;;;;;;;2.92;2.13;;;;;;;;;;5088612;28;20051;-76
2021/10/05 14:17:50;;;;;;;2.67;1.80;;;;;;;;;;5081994;28;20082;-76
2021/10/05 14:20:16;;;;;;;2.33;1.77;;;;;;;;;;5080388;28;20398;-75
2021/10/05 14:22:41;;;;;;;2.05;1.50;;;;;;;;;;5090226;28;20077;-80
2021/10/05 14:25:09;;;;;;;2.83;1.48;;;;;;;;;;5101368;28;20032;-79
2021/10/05 14:27:36;;;;;;;2.22;1.60;;;;;;;;;;5099029;28;20028;-83
2021/10/05 14:30:03;;;;;;;2.50;1.88;;;;;;;;;;5100746;28;20050;-84
2021/10/05 14:32:29;;;;;;;1.95;1.50;;;;;;;;;;5100380;28;20044;-78
2021/10/05 14:34:57;;;;;;;2.03;1.80;;;;;;;;;;5102743;28;20028;-80
2021/10/05 14:37:23;;;;;;;4.95;1.50;;;;;;;;;;5099345;28;20031;-82
2021/10/05 14:39:48;;;;;;;1.83;1.48;;;;;;;;;;5090135;28;20115;-78
2021/10/05 14:42:14;;;;;;;2.10;1.58;;;;;;;;;;5079434;28;20036;-80